Time;durP1;ratioP1;P1;durP2;ratioP2;P2;SDS_P1;SDS_P2;PMS_P1;PMS_P2;Temp;Humidity;BMP_temperature;BMP_pressure;BME280_temperature;BME280_humidity;BME280_pressure;Samples;Min_cycle;Max_cycle;Signal;HPM_P1;HPM_P2
2021/04/19 00:01:14;;;;;;;66.13;37.42;;;;;;;11.10;74.11;100043.88;5049840;28;20726;-20
2021/04/19 00:03:40;;;;;;;64.85;38.83;;;;;;;11.41;72.83;100050.09;5050034;28;20610;-21
2021/04/19 00:06:05;;;;;;;68.13;39.55;;;;;;;11.06;74.03;100026.69;5049786;28;20052;-23
2021/04/19 00:08:31;;;;;;;67.90;39.65;;;;;;;10.95;74.51;100040.75;5049648;28;20025;-20
2021/04/19 00:10:57;;;;;;;67.53;39.50;;;;;;;10.99;74.51;100042.78;5049405;28;20040;-21
2021/04/19 00:13:23;;;;;;;66.22;37.58;;;;;;;10.99;74.50;100031.25;5049402;28;20495;-22
2021/04/19 00:15:48;;;;;;;69.40;38.60;;;;;;;10.92;75.03;100025.19;5049674;28;20062;-21
2021/04/19 00:18:14;;;;;;;66.20;36.60;;;;;;;11.00;74.76;100040.91;5031639;28;20404;-22
2021/04/19 00:20:40;;;;;;;65.30;38.47;;;;;;;11.01;74.65;100039.84;5049292;28;20061;-21
2021/04/19 00:23:05;;;;;;;58.90;34.58;;;;;;;11.01;74.64;100039.84;5049208;28;20381;-21
2021/04/19 00:25:31;;;;;;;65.15;37.10;;;;;;;11.14;73.55;100034.38;5049250;28;20112;-21
2021/04/19 00:27:56;;;;;;;61.33;35.95;;;;;;;10.96;73.97;100026.38;5049059;28;20069;-21
2021/04/19 00:30:22;;;;;;;62.15;36.95;;;;;;;10.95;74.54;100027.41;5049068;28;20029;-21
2021/04/19 00:32:48;;;;;;;63.15;36.58;;;;;;;11.06;73.74;100024.81;5048851;28;20087;-22
2021/04/19 00:35:14;;;;;;;59.97;35.88;;;;;;;10.88;75.05;100038.16;5049001;28;20040;-21
2021/04/19 00:37:39;;;;;;;61.65;34.83;;;;;;;10.79;75.14;100024.31;4998465;28;20043;-21
2021/04/19 00:40:07;;;;;;;60.25;35.05;;;;;;;10.91;74.64;100035.06;5049007;28;20041;-20
2021/04/19 00:42:33;;;;;;;64.95;35.20;;;;;;;10.77;75.25;100018.38;5048689;28;20051;-21
2021/04/19 00:44:58;;;;;;;59.42;35.97;;;;;;;10.76;75.04;100016.72;5031545;28;20779;-21
2021/04/19 00:47:24;;;;;;;61.85;35.03;;;;;;;10.73;75.62;100035.06;5048871;28;20033;-21
2021/04/19 00:49:49;;;;;;;57.55;34.08;;;;;;;10.82;75.30;100026.50;5014821;28;20033;-21
2021/04/19 00:52:16;;;;;;;60.97;34.05;;;;;;;10.61;76.03;100018.94;5048532;28;20080;-21
2021/04/19 00:54:41;;;;;;;61.65;35.33;;;;;;;10.90;75.11;100029.94;5048292;28;20511;-21
2021/04/19 00:57:07;;;;;;;61.53;35.83;;;;;;;11.11;73.85;100024.16;5048501;28;20041;-22
2021/04/19 00:59:32;;;;;;;61.85;37.55;;;;;;;10.89;75.03;100014.97;5013222;28;20549;-23
2021/04/19 01:01:58;;;;;;;63.15;37.47;;;;;;;11.03;74.67;100032.44;5030808;28;20459;-21
2021/04/19 01:04:24;;;;;;;64.93;37.75;;;;;;;10.84;75.52;100024.44;5048653;28;20039;-21
2021/04/19 01:06:50;;;;;;;66.00;36.50;;;;;;;10.36;77.14;100006.47;5048402;28;20029;-22
2021/04/19 01:09:15;;;;;;;64.55;38.22;;;;;;;10.50;76.59;100017.00;5030454;28;20477;-22
2021/04/19 01:11:41;;;;;;;64.63;37.90;;;;;;;10.56;76.73;100026.78;5048383;28;20093;-21
2021/04/19 01:14:07;;;;;;;66.78;36.25;;;;;;;10.73;76.48;100027.84;5048180;28;20072;-22
2021/04/19 01:16:32;;;;;;;61.20;37.38;;;;;;;10.91;75.55;100029.72;5048207;28;20033;-22
2021/04/19 01:18:58;;;;;;;63.55;35.75;;;;;;;11.03;74.98;100037.78;5048280;28;20079;-22
2021/04/19 01:21:23;;;;;;;58.53;33.40;;;;;;;11.16;74.26;100026.97;5048086;28;20041;-20
2021/04/19 01:23:49;;;;;;;58.67;32.65;;;;;;;11.47;72.92;100035.84;5048312;28;20146;-21
2021/04/19 01:26:14;;;;;;;53.78;31.02;;;;;;;11.53;72.96;100032.25;5030741;28;20120;-20
2021/04/19 01:28:40;;;;;;;58.25;31.55;;;;;;;11.26;73.21;100027.25;5048116;28;20020;-21
2021/04/19 01:31:06;;;;;;;52.17;30.42;;;;;;;11.23;73.38;100017.00;5048299;28;20064;-22
2021/04/19 01:33:32;;;;;;;50.90;29.70;;;;;;;11.26;73.42;100019.25;5048115;28;20025;-21
2021/04/19 01:35:58;;;;;;;58.65;31.77;;;;;;;11.14;73.95;100018.38;5047889;28;20120;-21
2021/04/19 01:38:23;;;;;;;50.35;29.77;;;;;;;11.03;74.23;100005.75;5029931;28;20419;-21
2021/04/19 01:40:55;;;;;;;49.35;29.00;;;;;;;10.94;74.79;100001.78;5029671;28;20079;-21
2021/04/19 01:43:22;;;;;;;47.63;27.92;;;;;;;10.81;74.60;99987.56;5030338;28;20059;-22
2021/04/19 01:45:48;;;;;;;46.58;28.73;;;;;;;10.70;75.44;100006.94;5048178;28;20587;-22
2021/04/19 01:48:14;;;;;;;45.63;27.77;;;;;;;10.67;75.75;100007.41;5047611;28;20045;-21
2021/04/19 01:50:39;;;;;;;45.17;27.48;;;;;;;10.27;76.82;99997.88;5029417;28;20147;-21
2021/04/19 01:53:05;;;;;;;41.88;24.70;;;;;;;10.23;77.80;100014.53;5029872;28;20065;-21
2021/04/19 01:55:33;;;;;;;41.85;23.73;;;;;;;10.17;77.69;100018.88;5029566;28;20114;-21
2021/04/19 01:58:03;;;;;;;36.97;21.60;;;;;;;10.24;77.35;100008.19;5047411;28;20474;-22
2021/04/19 02:00:29;;;;;;;40.97;23.13;;;;;;;10.28;77.10;100014.69;5013841;28;20631;-22
2021/04/19 02:03:00;;;;;;;37.28;21.42;;;;;;;10.39;76.76;100014.00;5029492;28;20037;-21
2021/04/19 02:06:05;;;;;;;36.13;20.88;;;;;;;10.55;76.30;100004.63;5029553;28;20129;-22
2021/04/19 02:08:34;;;;;;;33.20;19.40;;;;;;;10.76;75.01;100008.72;5045895;28;20512;-21
2021/04/19 02:11:14;;;;;;;37.50;19.35;;;;;;;10.33;76.63;99984.75;5047272;28;20504;-22
2021/04/19 02:13:51;;;;;;;34.20;17.63;;;;;;;10.19;77.16;99992.00;5029371;28;20044;-21
2021/04/19 02:16:19;;;;;;;34.97;18.27;;;;;;;10.05;77.17;99973.47;5029841;28;20222;-22
2021/04/19 02:18:55;;;;;;;33.53;17.23;;;;;;;9.99;77.52;99974.34;5012851;28;20072;-21
2021/04/19 02:21:55;;;;;;;33.70;18.23;;;;;;;10.10;78.12;99980.00;5029571;28;20041;-22
2021/04/19 02:24:23;;;;;;;35.60;18.75;;;;;;;9.97;77.96;99976.41;5013732;28;20456;-25
2021/04/19 02:27:08;;;;;;;39.42;21.88;;;;;;;10.02;77.96;99995.22;5047088;28;20033;-21
2021/04/19 02:29:37;;;;;;;37.17;21.98;;;;;;;9.81;78.41;99985.75;5013896;28;20083;-21
2021/04/19 02:32:04;;;;;;;44.88;25.88;;;;;;;10.06;77.50;99991.09;5029890;28;20036;-20
2021/04/19 02:34:31;;;;;;;42.75;25.23;;;;;;;10.13;77.40;99984.88;5047068;28;20786;-20
2021/04/19 02:36:57;;;;;;;52.05;33.85;;;;;;;10.17;76.79;99978.09;5013046;28;20570;-21
2021/04/19 02:39:22;;;;;;;42.17;23.73;;;;;;;10.32;76.53;99994.59;5012852;28;20037;-21
2021/04/19 02:41:51;;;;;;;47.58;24.48;;;;;;;10.29;76.31;99983.53;5012822;28;20045;-22
2021/04/19 02:44:17;;;;;;;39.67;20.70;;;;;;;9.98;77.62;99999.34;5029847;28;20366;-21
2021/04/19 02:46:43;;;;;;;44.75;23.20;;;;;;;10.17;76.97;99999.41;5046759;28;20523;-21
2021/04/19 02:49:08;;;;;;;37.67;20.45;;;;;;;10.27;76.45;100003.19;5012720;28;20047;-21
2021/04/19 02:51:34;;;;;;;30.95;16.33;;;;;;;10.28;76.14;100001.38;5025701;28;20054;-22
2021/04/19 02:54:00;;;;;;;37.50;19.98;;;;;;;10.18;75.91;99985.06;5025578;28;20060;-21
2021/04/19 02:56:27;;;;;;;120.90;57.70;;;;;;;10.13;76.78;99990.22;5009277;28;20052;-21
2021/04/19 02:58:57;;;;;;;93.25;50.20;;;;;;;9.68;78.04;99979.69;5009281;28;20112;-22
2021/04/19 03:01:27;;;;;;;205.43;117.57;;;;;;;9.51;79.63;99993.50;5009411;28;20036;-21
2021/04/19 03:03:54;;;;;;;43.92;27.70;;;;;;;9.40;79.79;99976.38;5025891;28;20037;-22
2021/04/19 03:06:19;;;;;;;39.85;25.40;;;;;;;9.60;79.13;99975.44;5025876;28;20037;-22
2021/04/19 03:08:48;;;;;;;48.08;32.65;;;;;;;9.70;78.18;99972.31;5025513;28;20060;-22
2021/04/19 03:11:34;;;;;;;50.92;35.85;;;;;;;9.69;78.35;99997.31;5009638;28;20690;-22
2021/04/19 03:14:01;;;;;;;75.70;52.30;;;;;;;9.73;78.26;99991.34;5022595;28;20038;-22
2021/04/19 03:16:27;;;;;;;47.28;28.15;;;;;;;9.89;77.64;99976.69;5025543;28;20037;-22
2021/04/19 03:18:53;;;;;;;36.97;20.00;;;;;;;9.68;78.55;99969.03;5026589;28;20045;-22
2021/04/19 03:21:23;;;;;;;33.65;19.02;;;;;;;9.30;80.03;99969.88;5025322;28;20103;-22
2021/04/19 03:23:50;;;;;;;35.47;20.42;;;;;;;9.21;80.77;99954.16;5027950;28;20034;-22
2021/04/19 03:26:16;;;;;;;31.70;18.33;;;;;;;9.54;79.63;99955.00;5030595;28;20041;-22
2021/04/19 03:28:44;;;;;;;44.33;25.23;;;;;;;9.59;78.76;99937.34;5012602;28;20029;-22
2021/04/19 03:31:12;;;;;;;35.80;18.13;;;;;;;9.45;79.44;99957.91;5030684;28;20029;-22
2021/04/19 03:33:38;;;;;;;116.22;59.60;;;;;;;9.37;80.11;99960.81;5013117;28;20099;-22
2021/04/19 03:36:05;;;;;;;112.95;60.63;;;;;;;9.48;79.81;99940.72;5029174;28;20056;-22
2021/04/19 03:38:30;;;;;;;38.67;22.95;;;;;;;9.90;77.88;99959.66;5012522;28;20083;-22
2021/04/19 03:40:56;;;;;;;63.30;38.65;;;;;;;9.93;77.80;99961.91;5027418;28;20068;-22
2021/04/19 03:43:22;;;;;;;42.00;22.85;;;;;;;10.00;77.76;99956.50;5030235;28;20075;-24
2021/04/19 03:45:50;;;;;;;31.25;15.18;;;;;;;10.08;77.28;99960.75;5028669;28;20041;-23
2021/04/19 03:48:19;;;;;;;30.87;14.67;;;;;;;10.10;76.86;99956.03;5028891;28;20489;-22
2021/04/19 03:51:14;;;;;;;31.92;16.20;;;;;;;10.31;76.37;99955.66;5028371;28;20291;-22
2021/04/19 03:53:40;;;;;;;30.42;16.48;;;;;;;10.32;75.97;99951.97;5025134;28;20535;-21
2021/04/19 03:56:06;;;;;;;33.53;16.63;;;;;;;10.32;76.13;99956.44;5011900;28;20045;-21
2021/04/19 03:58:32;;;;;;;49.13;39.10;;;;;;;10.13;76.54;99947.59;5028651;28;20029;-19
2021/04/19 04:00:57;;;;;;;34.05;19.33;;;;;;;10.06;76.58;99945.78;5030124;28;20092;-21
2021/04/19 04:03:23;;;;;;;38.25;20.95;;;;;;;10.25;76.34;99967.97;5028747;28;20458;-22
2021/04/19 04:05:48;;;;;;;40.03;21.45;;;;;;;10.25;75.96;99953.81;5028661;28;20041;-22
2021/04/19 04:08:14;;;;;;;34.35;21.90;;;;;;;10.27;76.29;99959.75;5028375;28;20044;-21
2021/04/19 04:10:39;;;;;;;39.72;25.38;;;;;;;10.29;76.10;99964.88;5011685;28;20520;-22
2021/04/19 04:13:05;;;;;;;30.25;17.40;;;;;;;10.60;74.90;99969.31;5028884;28;20034;-22
2021/04/19 04:15:30;;;;;;;43.75;25.92;;;;;;;10.34;75.75;99975.72;5028206;28;20029;-22
2021/04/19 04:17:56;;;;;;;27.80;15.50;;;;;;;10.26;76.09;99982.13;5029656;28;20501;-22
2021/04/19 04:20:22;;;;;;;22.88;14.60;;;;;;;10.40;75.12;99965.00;5029628;28;20414;-22
2021/04/19 04:22:47;;;;;;;25.15;14.75;;;;;;;10.25;75.72;99978.63;5029261;28;20529;-22
2021/04/19 04:25:14;;;;;;;25.75;14.38;;;;;;;9.87;77.17;99970.75;5011852;28;20033;-22
2021/04/19 04:27:40;;;;;;;31.48;20.05;;;;;;;10.12;76.62;99972.63;5028113;28;20034;-22
2021/04/19 04:30:05;;;;;;;29.55;19.15;;;;;;;9.95;77.02;99962.50;5029469;28;20478;-21
2021/04/19 04:32:31;;;;;;;30.35;19.63;;;;;;;9.88;77.50;99974.22;5028135;28;20041;-22
2021/04/19 04:34:57;;;;;;;25.85;16.30;;;;;;;10.16;76.45;99989.78;5029078;28;20037;-21
2021/04/19 04:37:22;;;;;;;26.75;16.20;;;;;;;10.02;76.78;99978.41;5029549;28;20068;-20
2021/04/19 04:39:48;;;;;;;58.63;41.67;;;;;;;10.25;76.44;99983.13;5011484;28;20148;-21
2021/04/19 04:42:15;;;;;;;38.17;25.35;;;;;;;10.05;76.38;99965.50;5029213;28;20029;-21
2021/04/19 04:44:42;;;;;;;29.30;19.23;;;;;;;10.04;76.67;99989.69;5028257;28;20821;-23
2021/04/19 04:47:28;;;;;;;33.27;22.30;;;;;;;10.05;76.92;99992.13;5029103;28;20029;-22
2021/04/19 04:50:33;;;;;;;35.95;21.20;;;;;;;10.05;76.49;99970.81;5027843;28;20033;-21
2021/04/19 04:53:15;;;;;;;25.30;16.25;;;;;;;10.28;75.85;99988.06;5004894;28;20136;-22
2021/04/19 04:55:41;;;;;;;43.17;29.75;;;;;;;10.32;75.92;99983.94;5028728;28;20509;-22
2021/04/19 04:58:07;;;;;;;51.25;29.90;;;;;;;10.12;76.09;99972.63;5027648;28;20060;-22
2021/04/19 05:00:32;;;;;;;52.25;29.10;;;;;;;10.31;75.88;99981.50;5027264;28;20067;-21
2021/04/19 05:02:58;;;;;;;39.97;23.15;;;;;;;10.30;75.49;99985.19;5028742;28;20108;-21
2021/04/19 05:05:23;;;;;;;62.00;35.80;;;;;;;10.06;76.39;99969.78;5027355;28;20461;-20
2021/04/19 05:07:49;;;;;;;47.05;27.02;;;;;;;10.19;76.50;99979.50;5027716;28;20048;-21
2021/04/19 05:10:14;;;;;;;54.72;33.22;;;;;;;10.26;76.10;99974.13;5027514;28;20040;-21
2021/04/19 05:12:40;;;;;;;40.33;24.63;;;;;;;10.61;74.86;99981.63;5028748;28;20852;-22
2021/04/19 05:15:12;;;;;;;64.55;36.88;;;;;;;10.63;74.55;99974.22;5027143;28;20017;-22
2021/04/19 05:17:38;;;;;;;57.92;39.15;;;;;;;10.34;75.90;99976.53;5028486;28;20036;-20
2021/04/19 05:20:05;;;;;;;55.58;32.85;;;;;;;10.31;75.38;99973.50;5028661;28;20021;-21
2021/04/19 05:22:30;;;;;;;31.50;22.48;;;;;;;10.29;75.51;99973.66;5027370;28;20056;-21
2021/04/19 05:24:56;;;;;;;26.30;17.17;;;;;;;9.86;76.54;99948.59;5027101;28;20053;-20
2021/04/19 05:27:22;;;;;;;29.90;18.80;;;;;;;10.13;76.24;99960.91;5028484;28;20136;-22
2021/04/19 05:29:47;;;;;;;22.77;14.30;;;;;;;10.22;75.91;99978.25;5010514;28;20449;-22
2021/04/19 05:32:13;;;;;;;28.25;20.58;;;;;;;10.15;75.83;99962.31;5010417;28;20095;-22
2021/04/19 05:34:39;;;;;;;26.58;19.85;;;;;;;9.93;76.50;99969.88;5026709;28;20598;-21
2021/04/19 05:37:05;;;;;;;20.75;13.10;;;;;;;9.74;77.15;99962.84;5028213;28;20037;-22
2021/04/19 05:39:33;;;;;;;24.52;16.38;;;;;;;9.59;77.30;99952.50;5028118;28;20056;-22
2021/04/19 05:42:03;;;;;;;31.17;22.23;;;;;;;9.68;77.47;99961.06;5026661;28;20115;-22
2021/04/19 05:44:30;;;;;;;42.25;21.55;;;;;;;9.53;78.00;99970.16;5028025;28;20060;-22
2021/04/19 05:46:56;;;;;;;41.78;29.42;;;;;;;9.52;78.49;99968.53;5027036;28;20037;-22
2021/04/19 05:49:21;;;;;;;23.38;15.65;;;;;;;9.35;78.64;99940.78;5027008;28;20041;-22
2021/04/19 05:51:47;;;;;;;19.20;12.45;;;;;;;9.34;78.83;99960.44;5041378;28;20088;-22
2021/04/19 05:54:13;;;;;;;38.22;25.40;;;;;;;9.29;78.94;99960.25;5029801;28;20036;-22
2021/04/19 05:56:47;;;;;;;60.78;34.60;;;;;;;9.41;78.49;99942.59;5029439;28;20091;-22
2021/04/19 05:59:17;;;;;;;87.30;49.40;;;;;;;9.73;78.10;99963.91;5014484;28;20032;-21
2021/04/19 06:01:44;;;;;;;52.65;32.72;;;;;;;9.86;77.11;99958.47;5030443;28;20844;-21
2021/04/19 06:04:37;;;;;;;35.78;23.15;;;;;;;10.19;76.59;99965.34;5029946;28;20037;-22
2021/04/19 06:07:08;;;;;;;53.42;31.83;;;;;;;10.04;75.82;99955.03;5029308;28;20098;-22
2021/04/19 06:09:38;;;;;;;26.33;17.52;;;;;;;9.97;76.09;99949.78;5029634;28;20021;-22
2021/04/19 06:12:08;;;;;;;27.50;17.25;;;;;;;9.77;76.82;99933.13;5047370;28;20043;-22
2021/04/19 06:14:36;;;;;;;32.88;23.70;;;;;;;9.86;77.02;99943.28;5029003;28;20020;-22
2021/04/19 06:17:02;;;;;;;29.95;20.17;;;;;;;9.68;76.96;99950.41;5029477;28;20036;-22
2021/04/19 06:19:27;;;;;;;32.90;22.42;;;;;;;9.93;76.68;99948.59;5047406;28;20040;-22
2021/04/19 06:21:53;;;;;;;23.55;15.32;;;;;;;9.95;76.16;99937.69;5046978;28;20033;-21
2021/04/19 06:24:19;;;;;;;24.77;14.73;;;;;;;10.01;76.29;99958.97;5029162;28;20115;-22
2021/04/19 06:26:44;;;;;;;33.75;19.85;;;;;;;10.11;76.20;99954.97;5046941;28;20040;-21
2021/04/19 06:29:11;;;;;;;22.38;14.00;;;;;;;9.75;76.48;99908.56;5047084;28;20370;-22
2021/04/19 06:31:41;;;;;;;25.05;17.48;;;;;;;9.81;77.02;99939.66;5029509;28;20032;-22
2021/04/19 06:34:08;;;;;;;24.75;15.02;;;;;;;9.89;76.60;99952.72;5013217;28;20029;-22
2021/04/19 06:36:38;;;;;;;34.25;21.10;;;;;;;9.76;77.03;99945.63;5046677;28;20032;-22
2021/04/19 06:39:05;;;;;;;39.55;26.23;;;;;;;9.78;76.82;99937.41;5046788;28;20108;-21
2021/04/19 06:41:30;;;;;;;31.33;20.48;;;;;;;9.93;76.50;99956.56;5047241;28;20037;-22
2021/04/19 06:43:57;;;;;;;37.40;24.75;;;;;;;10.20;75.89;99967.00;5046921;28;20111;-22
2021/04/19 06:46:27;;;;;;;39.72;25.20;;;;;;;9.88;75.85;99934.28;5046421;28;20508;-21
2021/04/19 06:48:53;;;;;;;27.23;17.38;;;;;;;10.03;76.20;99942.75;5046519;28;20456;-21
2021/04/19 06:51:19;;;;;;;25.38;15.95;;;;;;;10.10;75.86;99924.06;5028931;28;20075;-22
2021/04/19 06:53:44;;;;;;;27.88;18.38;;;;;;;9.86;76.13;99911.31;5028917;28;20485;-22
2021/04/19 06:56:10;;;;;;;30.58;20.75;;;;;;;9.98;76.92;99923.94;5046898;28;20174;-22
2021/04/19 06:58:35;;;;;;;28.45;17.88;;;;;;;10.04;75.85;99913.22;5014541;28;20032;-22
2021/04/19 07:01:01;;;;;;;26.30;17.27;;;;;;;9.90;76.37;99901.06;5033223;28;20481;-21
2021/04/19 07:03:27;;;;;;;30.70;19.02;;;;;;;10.18;75.62;99905.94;5032790;28;20029;-21
2021/04/19 07:05:52;;;;;;;26.95;17.30;;;;;;;10.45;74.69;99911.81;5016930;28;20049;-21
2021/04/19 07:08:56;;;;;;;28.05;17.60;;;;;;;10.20;75.80;99916.38;5032896;28;20029;-22
2021/04/19 07:11:21;;;;;;;30.63;18.25;;;;;;;10.29;75.57;99903.56;5033110;28;20025;-21
2021/04/19 07:13:47;;;;;;;33.30;20.02;;;;;;;10.29;75.53;99875.06;5032968;28;20378;-21
2021/04/19 07:16:12;;;;;;;33.40;20.30;;;;;;;10.45;75.67;99898.50;5050646;28;20033;-22
2021/04/19 07:18:38;;;;;;;28.35;17.17;;;;;;;10.47;74.18;99884.94;5032901;28;20033;-21
2021/04/19 07:21:05;;;;;;;24.67;15.07;;;;;;;10.40;74.34;99876.19;5033410;28;20043;-21
2021/04/19 07:23:31;;;;;;;22.88;13.73;;;;;;;10.72;73.13;99876.84;5032556;28;20094;-21
2021/04/19 07:25:57;;;;;;;33.75;19.70;;;;;;;10.68;73.87;99878.34;5032573;28;20588;-21
2021/04/19 07:28:22;;;;;;;21.33;13.18;;;;;;;10.67;72.83;99895.38;5032550;28;20461;-22
2021/04/19 07:30:58;;;;;;;31.50;18.33;;;;;;;10.57;72.93;99890.56;5050105;28;20037;-22
2021/04/19 07:33:27;;;;;;;41.03;24.15;;;;;;;10.81;72.81;99899.53;5050400;28;20036;-21
2021/04/19 07:35:53;;;;;;;35.50;21.38;;;;;;;10.70;72.28;99915.44;5050499;28;20055;-20
2021/04/19 07:38:32;;;;;;;38.15;21.95;;;;;;;10.75;71.58;99892.41;5050522;28;20106;-20
2021/04/19 07:40:58;;;;;;;31.58;18.50;;;;;;;10.69;71.81;99882.66;5050186;28;20060;-21
2021/04/19 07:43:24;;;;;;;25.75;16.02;;;;;;;10.53;71.23;99886.72;5050048;28;20065;-22
2021/04/19 07:46:17;;;;;;;30.88;18.60;;;;;;;10.57;71.56;99911.09;5050056;28;20037;-22
2021/04/19 07:48:48;;;;;;;146.65;62.88;;;;;;;10.53;72.55;99915.25;5049726;28;20029;-21
2021/04/19 07:51:23;;;;;;;43.72;29.15;;;;;;;10.47;73.56;99910.78;5049997;28;20123;-21
2021/04/19 07:53:48;;;;;;;41.60;32.63;;;;;;;10.48;74.30;99904.41;5049984;28;20028;-21
2021/04/19 07:56:17;;;;;;;53.80;42.25;;;;;;;10.85;74.24;99908.69;5049737;28;20124;-21
2021/04/19 07:58:43;;;;;;;26.40;15.50;;;;;;;10.35;75.02;99876.88;5049686;28;20035;-21
2021/04/19 08:01:08;;;;;;;22.85;14.48;;;;;;;10.43;76.56;99881.91;5049792;28;20037;-21
2021/04/19 08:03:40;;;;;;;21.85;14.82;;;;;;;10.38;76.48;99879.09;5031858;28;20287;-21
2021/04/19 08:06:19;;;;;;;30.98;22.27;;;;;;;10.44;77.39;99883.53;5049514;28;20052;-22
2021/04/19 08:08:45;;;;;;;28.85;18.50;;;;;;;10.57;78.72;99889.75;5031218;28;20033;-21
2021/04/19 08:11:12;;;;;;;31.90;19.15;;;;;;;10.54;78.17;99874.19;5049886;28;20076;-22
2021/04/19 08:13:39;;;;;;;39.53;24.23;;;;;;;10.46;78.13;99888.63;5049810;28;20548;-21
2021/04/19 08:16:31;;;;;;;38.65;24.77;;;;;;;10.79;77.31;99893.59;5049893;28;20040;-22
2021/04/19 08:19:00;;;;;;;31.33;18.35;;;;;;;10.69;77.03;99874.63;5046645;28;20041;-21
2021/04/19 08:21:28;;;;;;;40.78;22.63;;;;;;;10.73;78.19;99883.81;5049599;28;20119;-22
2021/04/19 08:23:54;;;;;;;32.13;18.85;;;;;;;10.73;77.68;99875.81;5049449;28;20021;-22
2021/04/19 08:26:19;;;;;;;37.20;23.15;;;;;;;10.96;78.32;99871.63;5031386;28;20061;-22
2021/04/19 08:28:47;;;;;;;33.08;20.58;;;;;;;10.65;77.11;99854.78;5031289;28;20072;-21
2021/04/19 08:31:13;;;;;;;36.10;20.67;;;;;;;10.54;77.15;99871.53;5049182;28;20052;-22
2021/04/19 08:33:38;;;;;;;40.28;22.23;;;;;;;10.55;76.80;99843.84;5049224;28;20278;-21
2021/04/19 08:36:08;;;;;;;35.65;21.73;;;;;;;10.44;78.22;99848.06;5015061;28;20028;-21
2021/04/19 08:38:34;;;;;;;25.90;17.17;;;;;;;10.73;76.49;99843.81;5031051;28;20029;-21
2021/04/19 08:40:59;;;;;;;26.45;16.48;;;;;;;10.55;77.58;99831.31;5031217;28;20021;-20
2021/04/19 08:43:26;;;;;;;27.98;18.02;;;;;;;10.91;76.01;99842.13;5031304;28;20037;-21
2021/04/19 08:45:52;;;;;;;27.17;17.58;;;;;;;10.67;75.37;99831.38;5031580;28;20029;-21
2021/04/19 08:48:17;;;;;;;18.23;13.38;;;;;;;10.61;75.14;99837.63;5049175;28;20147;-21
2021/04/19 08:50:46;;;;;;;24.25;14.88;;;;;;;10.44;76.14;99830.22;5031165;28;20827;-21
2021/04/19 08:53:13;;;;;;;23.05;14.73;;;;;;;10.74;75.33;99842.75;5049110;28;20025;-21
2021/04/19 08:55:38;;;;;;;22.90;15.70;;;;;;;10.88;75.62;99847.94;5048947;28;20040;-21
2021/04/19 08:58:11;;;;;;;24.30;16.55;;;;;;;10.57;76.28;99842.56;5048929;28;20060;-22
2021/04/19 09:00:47;;;;;;;23.45;15.38;;;;;;;10.51;75.90;99842.66;5048208;28;20039;-21
2021/04/19 09:03:15;;;;;;;25.85;17.80;;;;;;;10.56;74.96;99819.63;5032014;28;20067;-21
2021/04/19 09:05:41;;;;;;;25.52;15.93;;;;;;;10.49;76.05;99831.41;5048728;28;20493;-21
2021/04/19 09:08:08;;;;;;;28.92;18.30;;;;;;;10.70;75.64;99806.91;5048512;28;20036;-22
2021/04/19 09:11:10;;;;;;;22.85;13.27;;;;;;;10.65;75.30;99834.25;5048237;28;20029;-22
2021/04/19 09:13:42;;;;;;;24.25;15.73;;;;;;;10.57;74.91;99833.75;5048439;28;20036;-22
2021/04/19 09:16:18;;;;;;;28.73;18.25;;;;;;;10.62;76.04;99825.91;5048420;28;20094;-21
2021/04/19 09:18:56;;;;;;;23.98;15.32;;;;;;;10.56;75.26;99840.13;5048151;28;20017;-21
2021/04/19 09:21:40;;;;;;;22.85;15.35;;;;;;;10.62;75.14;99833.91;5047656;28;20035;-22
2021/04/19 09:24:08;;;;;;;25.38;15.48;;;;;;;10.68;75.14;99837.53;5048137;28;20048;-22
2021/04/19 09:26:59;;;;;;;23.80;13.10;;;;;;;10.75;75.92;99828.41;5030360;28;20033;-22
2021/04/19 09:29:25;;;;;;;19.33;12.10;;;;;;;10.47;75.42;99812.97;5047983;28;20424;-22
2021/04/19 09:32:04;;;;;;;22.25;13.07;;;;;;;10.49;76.65;99818.06;5047983;28;20033;-21
2021/04/19 09:34:37;;;;;;;23.67;14.93;;;;;;;10.36;77.06;99809.22;5048323;28;20493;-21
2021/04/19 09:37:03;;;;;;;23.23;13.95;;;;;;;10.21;77.20;99784.75;5047980;28;20029;-21
2021/04/19 09:39:47;;;;;;;21.98;14.30;;;;;;;10.26;78.27;99790.22;5047782;28;20029;-21
2021/04/19 09:42:13;;;;;;;26.02;15.10;;;;;;;10.37;79.15;99770.84;5047959;28;20911;-20
2021/04/19 09:44:52;;;;;;;24.33;13.57;;;;;;;10.44;77.63;99771.56;5047945;28;20057;-21
2021/04/19 09:47:45;;;;;;;29.48;14.85;;;;;;;10.39;79.18;99781.28;5047613;28;20120;-22
2021/04/19 09:50:11;;;;;;;26.50;13.95;;;;;;;10.44;78.29;99763.59;5047893;28;20040;-22
2021/04/19 09:52:38;;;;;;;26.88;15.00;;;;;;;10.55;78.68;99754.00;5029630;28;20025;-22
2021/04/19 09:55:03;;;;;;;22.30;13.27;;;;;;;10.55;78.59;99737.19;5013483;28;20486;-22
2021/04/19 09:57:29;;;;;;;25.08;15.52;;;;;;;10.82;78.75;99743.75;5029675;28;20031;-22
2021/04/19 09:59:54;;;;;;;25.25;16.17;;;;;;;10.93;78.65;99752.84;5029751;28;20037;-22
2021/04/19 10:02:20;;;;;;;23.08;14.02;;;;;;;10.88;76.42;99750.03;5029592;28;20031;-22
2021/04/19 10:04:45;;;;;;;23.73;13.82;;;;;;;10.85;76.74;99742.50;5047182;28;20036;-22
2021/04/19 10:07:11;;;;;;;22.90;12.93;;;;;;;10.88;75.60;99741.22;5029558;28;20122;-21
2021/04/19 10:09:38;;;;;;;22.75;13.27;;;;;;;10.77;76.64;99726.81;5047204;28;20040;-23
2021/04/19 10:12:05;;;;;;;24.10;13.60;;;;;;;10.88;76.78;99730.56;5029936;28;20024;-22
2021/04/19 10:14:38;;;;;;;25.15;12.65;;;;;;;11.18;76.42;99725.94;5029369;28;20039;-19
2021/04/19 10:17:14;;;;;;;22.95;12.82;;;;;;;11.15;74.93;99696.25;5047339;28;20082;-21
2021/04/19 10:19:39;;;;;;;22.85;13.07;;;;;;;11.53;75.39;99703.78;5047560;28;20029;-20
2021/04/19 10:22:06;;;;;;;23.02;14.32;;;;;;;12.26;74.09;99717.59;5047197;28;20060;-22
2021/04/19 10:24:33;;;;;;;22.80;12.52;;;;;;;12.23;74.30;99712.72;5047379;28;20059;-21
2021/04/19 10:26:58;;;;;;;23.02;12.00;;;;;;;12.36;71.67;99692.88;5047668;28;20051;-21
2021/04/19 10:29:27;;;;;;;20.42;11.27;;;;;;;12.10;72.38;99699.63;5047096;28;20029;-22
2021/04/19 10:31:57;;;;;;;20.05;11.18;;;;;;;12.43;72.88;99675.66;5047205;28;20033;-22
2021/04/19 10:34:27;;;;;;;15.60;10.18;;;;;;;12.59;70.03;99673.25;5046954;28;20054;-20
2021/04/19 10:36:58;;;;;;;15.98;9.05;;;;;;;12.35;69.34;99664.53;5047050;28;20565;-22
2021/04/19 10:39:26;;;;;;;17.60;9.93;;;;;;;12.39;71.33;99671.84;5047369;28;20436;-21
2021/04/19 10:41:53;;;;;;;18.02;9.35;;;;;;;12.44;69.08;99657.72;5029353;28;20025;-21
2021/04/19 10:44:25;;;;;;;14.75;9.38;;;;;;;12.15;69.57;99654.28;5046740;28;20029;-22
2021/04/19 10:46:50;;;;;;;16.83;9.95;;;;;;;12.18;70.75;99669.84;5046635;28;20043;-21
2021/04/19 10:49:24;;;;;;;15.52;9.52;;;;;;;12.17;70.39;99641.47;5046813;28;20033;-22
2021/04/19 10:51:51;;;;;;;17.75;10.30;;;;;;;12.78;69.35;99663.94;5046995;28;20155;-22
2021/04/19 10:54:17;;;;;;;16.33;9.65;;;;;;;12.70;68.45;99664.31;5047128;28;20052;-21
2021/04/19 10:56:43;;;;;;;16.05;10.18;;;;;;;12.36;69.50;99655.44;5046814;28;20065;-21
2021/04/19 10:59:09;;;;;;;18.95;10.77;;;;;;;12.57;70.07;99646.72;5046855;28;20124;-23
2021/04/19 11:01:45;;;;;;;18.23;10.63;;;;;;;12.53;69.84;99660.84;5046664;28;20061;-21
2021/04/19 11:04:11;;;;;;;19.65;11.00;;;;;;;12.29;69.75;99662.81;5028906;28;20481;-21
2021/04/19 11:06:37;;;;;;;20.52;11.77;;;;;;;12.25;68.98;99660.63;5028749;28;20117;-22
2021/04/19 11:09:07;;;;;;;20.27;11.32;;;;;;;12.28;70.25;99635.28;5046789;28;20067;-21
2021/04/19 11:11:35;;;;;;;21.05;12.60;;;;;;;12.95;68.79;99658.56;5046700;28;20032;-21
2021/04/19 11:14:19;;;;;;;17.58;10.38;;;;;;;12.77;68.69;99646.25;5046639;28;20053;-21
2021/04/19 11:16:55;;;;;;;19.70;11.65;;;;;;;12.52;69.58;99638.59;5046409;28;20528;-20
2021/04/19 11:19:41;;;;;;;18.38;11.57;;;;;;;12.37;70.01;99641.84;5046857;28;20029;-21
2021/04/19 11:22:29;;;;;;;16.42;10.10;;;;;;;12.48;69.70;99639.34;5046490;28;20508;-22
2021/04/19 11:24:55;;;;;;;14.70;9.65;;;;;;;12.61;68.40;99625.66;5046490;28;20064;-21